sensor_id;sensor_type;location;lat;lon;timestamp;pressure;altitude;pressure_sealevel;temperature;humidity
59531;BME280;45349;48.692;8.186;2023-02-24T00:01:41;98269.84;;;7.95;100.00
59531;BME280;45349;48.692;8.186;2023-02-24T00:04:10;98263.31;;;7.91;100.00
59531;BME280;45349;48.692;8.186;2023-02-24T00:06:39;98267.16;;;7.87;100.00
59531;BME280;45349;48.692;8.186;2023-02-24T00:09:07;98269.22;;;7.83;100.00
59531;BME280;45349;48.692;8.186;2023-02-24T00:11:37;98269.34;;;7.81;100.00
59531;BME280;45349;48.692;8.186;2023-02-24T00:14:05;98269.78;;;7.77;100.00
59531;BME280;45349;48.692;8.186;2023-02-24T00:16:32;98262.28;;;7.74;100.00
59531;BME280;45349;48.692;8.186;2023-02-24T00:19:00;98255.44;;;7.73;100.00
59531;BME280;45349;48.692;8.186;2023-02-24T00:21:27;98252.97;;;7.71;100.00
59531;BME280;45349;48.692;8.186;2023-02-24T00:23:54;98249.19;;;7.65;100.00
59531;BME280;45349;48.692;8.186;2023-02-24T00:26:24;98255.63;;;7.61;100.00
59531;BME280;45349;48.692;8.186;2023-02-24T00:28:55;98246.59;;;7.56;100.00
59531;BME280;45349;48.692;8.186;2023-02-24T00:31:25;98243.75;;;7.49;100.00
59531;BME280;45349;48.692;8.186;2023-02-24T00:33:55;98242.66;;;7.42;100.00
59531;BME280;45349;48.692;8.186;2023-02-24T00:36:22;98234.91;;;7.32;100.00
59531;BME280;45349;48.692;8.186;2023-02-24T00:38:50;98231.06;;;7.26;100.00
59531;BME280;45349;48.692;8.186;2023-02-24T00:41:22;98227.97;;;7.22;100.00
59531;BME280;45349;48.692;8.186;2023-02-24T00:43:50;98230.16;;;7.17;100.00
59531;BME280;45349;48.692;8.186;2023-02-24T00:46:20;98225.50;;;7.11;100.00
59531;BME280;45349;48.692;8.186;2023-02-24T00:48:47;98224.69;;;7.11;100.00
59531;BME280;45349;48.692;8.186;2023-02-24T00:51:21;98224.00;;;7.08;100.00
59531;BME280;45349;48.692;8.186;2023-02-24T00:53:50;98221.69;;;7.05;100.00
59531;BME280;45349;48.692;8.186;2023-02-24T00:56:20;98224.53;;;7.02;100.00
59531;BME280;45349;48.692;8.186;2023-02-24T00:58:48;98221.16;;;7.02;100.00
59531;BME280;45349;48.692;8.186;2023-02-24T01:01:16;98222.38;;;6.98;100.00
59531;BME280;45349;48.692;8.186;2023-02-24T01:03:45;98221.00;;;6.93;100.00
59531;BME280;45349;48.692;8.186;2023-02-24T01:06:16;98226.06;;;6.95;100.00
59531;BME280;45349;48.692;8.186;2023-02-24T01:08:44;98219.63;;;6.99;100.00
59531;BME280;45349;48.692;8.186;2023-02-24T01:11:12;98234.13;;;7.02;100.00
59531;BME280;45349;48.692;8.186;2023-02-24T01:13:56;98231.50;;;7.12;100.00
59531;BME280;45349;48.692;8.186;2023-02-24T01:16:23;98227.00;;;7.14;100.00
59531;BME280;45349;48.692;8.186;2023-02-24T01:18:52;98229.31;;;7.17;100.00
59531;BME280;45349;48.692;8.186;2023-02-24T01:21:19;98219.50;;;7.20;100.00
59531;BME280;45349;48.692;8.186;2023-02-24T01:23:46;98223.56;;;7.23;100.00
59531;BME280;45349;48.692;8.186;2023-02-24T01:26:13;98225.22;;;7.24;100.00
59531;BME280;45349;48.692;8.186;2023-02-24T01:28:40;98222.50;;;7.26;100.00
59531;BME280;45349;48.692;8.186;2023-02-24T01:31:07;98221.25;;;7.30;100.00
59531;BME280;45349;48.692;8.186;2023-02-24T01:33:35;98220.28;;;7.31;100.00
59531;BME280;45349;48.692;8.186;2023-02-24T01:36:09;98221.09;;;7.31;100.00
59531;BME280;45349;48.692;8.186;2023-02-24T01:38:37;98222.06;;;7.40;100.00
59531;BME280;45349;48.692;8.186;2023-02-24T01:41:07;98220.09;;;7.42;100.00
59531;BME280;45349;48.692;8.186;2023-02-24T01:43:53;98213.00;;;7.44;100.00
59531;BME280;45349;48.692;8.186;2023-02-24T01:46:23;98218.06;;;7.46;100.00
59531;BME280;45349;48.692;8.186;2023-02-24T01:48:54;98212.72;;;7.47;100.00
59531;BME280;45349;48.692;8.186;2023-02-24T01:51:28;98208.19;;;7.49;100.00
59531;BME280;45349;48.692;8.186;2023-02-24T01:53:57;98211.47;;;7.51;100.00
59531;BME280;45349;48.692;8.186;2023-02-24T01:56:24;98195.88;;;7.51;100.00
59531;BME280;45349;48.692;8.186;2023-02-24T01:58:55;98187.97;;;7.53;100.00
59531;BME280;45349;48.692;8.186;2023-02-24T02:01:24;98182.78;;;7.53;100.00
59531;BME280;45349;48.692;8.186;2023-02-24T02:03:56;98192.31;;;7.52;100.00
59531;BME280;45349;48.692;8.186;2023-02-24T02:06:28;98187.97;;;7.53;100.00
59531;BME280;45349;48.692;8.186;2023-02-24T02:08:55;98180.03;;;7.54;100.00
59531;BME280;45349;48.692;8.186;2023-02-24T02:11:22;98173.34;;;7.52;100.00
59531;BME280;45349;48.692;8.186;2023-02-24T02:13:50;98169.91;;;7.51;100.00
59531;BME280;45349;48.692;8.186;2023-02-24T02:16:42;98160.78;;;7.47;100.00
59531;BME280;45349;48.692;8.186;2023-02-24T02:19:54;98151.63;;;7.43;100.00
59531;BME280;45349;48.692;8.186;2023-02-24T02:22:44;98145.63;;;7.43;100.00
59531;BME280;45349;48.692;8.186;2023-02-24T02:25:17;98144.44;;;7.37;100.00
59531;BME280;45349;48.692;8.186;2023-02-24T02:28:25;98144.16;;;7.30;100.00
59531;BME280;45349;48.692;8.186;2023-02-24T02:31:10;98138.16;;;7.30;100.00
59531;BME280;45349;48.692;8.186;2023-02-24T02:34:08;98142.97;;;7.24;100.00
59531;BME280;45349;48.692;8.186;2023-02-24T02:36:51;98145.00;;;7.21;100.00
59531;BME280;45349;48.692;8.186;2023-02-24T02:39:26;98145.00;;;7.21;100.00
59531;BME280;45349;48.692;8.186;2023-02-24T02:42:04;98149.78;;;7.26;100.00
59531;BME280;45349;48.692;8.186;2023-02-24T02:44:45;98153.88;;;7.28;100.00
59531;BME280;45349;48.692;8.186;2023-02-24T02:47:24;98143.25;;;7.21;100.00
59531;BME280;45349;48.692;8.186;2023-02-24T02:49:55;98149.25;;;7.22;100.00
59531;BME280;45349;48.692;8.186;2023-02-24T02:52:27;98142.41;;;7.21;100.00
59531;BME280;45349;48.692;8.186;2023-02-24T02:54:59;98139.00;;;7.20;100.00
59531;BME280;45349;48.692;8.186;2023-02-24T02:57:30;98132.59;;;7.24;100.00
59531;BME280;45349;48.692;8.186;2023-02-24T03:00:02;98135.41;;;7.31;100.00
59531;BME280;45349;48.692;8.186;2023-02-24T03:02:38;98134.63;;;7.31;100.00
59531;BME280;45349;48.692;8.186;2023-02-24T03:05:09;98132.16;;;7.29;100.00
59531;BME280;45349;48.692;8.186;2023-02-24T03:07:40;98144.06;;;7.22;100.00
59531;BME280;45349;48.692;8.186;2023-02-24T03:10:14;98139.69;;;7.22;100.00
59531;BME280;45349;48.692;8.186;2023-02-24T03:12:48;98136.81;;;7.26;100.00
59531;BME280;45349;48.692;8.186;2023-02-24T03:15:17;98130.66;;;7.27;100.00
59531;BME280;45349;48.692;8.186;2023-02-24T03:17:48;98130.78;;;7.25;100.00
59531;BME280;45349;48.692;8.186;2023-02-24T03:20:23;98129.84;;;7.26;100.00
59531;BME280;45349;48.692;8.186;2023-02-24T03:22:57;98136.66;;;7.27;100.00
59531;BME280;45349;48.692;8.186;2023-02-24T03:25:33;98139.66;;;7.32;100.00
59531;BME280;45349;48.692;8.186;2023-02-24T03:28:07;98143.09;;;7.33;100.00
59531;BME280;45349;48.692;8.186;2023-02-24T03:30:41;98159.34;;;7.35;100.00
59531;BME280;45349;48.692;8.186;2023-02-24T03:33:11;98148.00;;;7.36;100.00
59531;BME280;45349;48.692;8.186;2023-02-24T03:35:45;98141.16;;;7.35;100.00
59531;BME280;45349;48.692;8.186;2023-02-24T03:38:15;98144.56;;;7.35;100.00
59531;BME280;45349;48.692;8.186;2023-02-24T03:40:43;98134.84;;;7.37;100.00
59531;BME280;45349;48.692;8.186;2023-02-24T03:43:21;98132.94;;;7.39;100.00
59531;BME280;45349;48.692;8.186;2023-02-24T03:45:51;98131.00;;;7.42;100.00
59531;BME280;45349;48.692;8.186;2023-02-24T03:48:20;98142.88;;;7.44;100.00
59531;BME280;45349;48.692;8.186;2023-02-24T03:50:49;98137.56;;;7.46;100.00
59531;BME280;45349;48.692;8.186;2023-02-24T03:53:53;98138.63;;;7.43;100.00
59531;BME280;45349;48.692;8.186;2023-02-24T03:56:28;98135.25;;;7.43;100.00
59531;BME280;45349;48.692;8.186;2023-02-24T03:59:13;98134.41;;;7.42;100.00
59531;BME280;45349;48.692;8.186;2023-02-24T04:04:31;98136.59;;;7.47;100.00
59531;BME280;45349;48.692;8.186;2023-02-24T04:07:14;98135.75;;;7.46;100.00
59531;BME280;45349;48.692;8.186;2023-02-24T04:09:46;98131.25;;;7.48;100.00
59531;BME280;45349;48.692;8.186;2023-02-24T04:12:18;98126.72;;;7.50;100.00
59531;BME280;45349;48.692;8.186;2023-02-24T04:14:55;98131.63;;;7.53;100.00
59531;BME280;45349;48.692;8.186;2023-02-24T04:17:27;98130.28;;;7.49;100.00
59531;BME280;45349;48.692;8.186;2023-02-24T04:20:01;98134.69;;;7.49;100.00
59531;BME280;45349;48.692;8.186;2023-02-24T04:22:38;98135.47;;;7.49;100.00
59531;BME280;45349;48.692;8.186;2023-02-24T04:25:07;98122.88;;;7.54;100.00
59531;BME280;45349;48.692;8.186;2023-02-24T04:27:39;98121.53;;;7.50;100.00
59531;BME280;45349;48.692;8.186;2023-02-24T04:32:54;98114.41;;;7.52;100.00
59531;BME280;45349;48.692;8.186;2023-02-24T04:35:24;98120.34;;;7.45;100.00
59531;BME280;45349;48.692;8.186;2023-02-24T04:37:55;98117.88;;;7.43;100.00
59531;BME280;45349;48.692;8.186;2023-02-24T04:40:22;98118.25;;;7.48;100.00
59531;BME280;45349;48.692;8.186;2023-02-24T04:42:51;98116.00;;;7.35;100.00
59531;BME280;45349;48.692;8.186;2023-02-24T04:45:19;98109.63;;;7.30;100.00
59531;BME280;45349;48.692;8.186;2023-02-24T04:47:48;98103.59;;;7.29;100.00
59531;BME280;45349;48.692;8.186;2023-02-24T04:50:16;98103.88;;;7.26;100.00
59531;BME280;45349;48.692;8.186;2023-02-24T04:52:52;98092.53;;;7.27;100.00
59531;BME280;45349;48.692;8.186;2023-02-24T04:55:23;98092.53;;;7.27;100.00
59531;BME280;45349;48.692;8.186;2023-02-24T04:57:53;98091.44;;;7.30;100.00
59531;BME280;45349;48.692;8.186;2023-02-24T05:00:20;98089.94;;;7.27;100.00
59531;BME280;45349;48.692;8.186;2023-02-24T05:02:52;98083.09;;;7.26;100.00
59531;BME280;45349;48.692;8.186;2023-02-24T05:05:22;98076.28;;;7.25;100.00
59531;BME280;45349;48.692;8.186;2023-02-24T05:07:49;98079.84;;;7.24;100.00
59531;BME280;45349;48.692;8.186;2023-02-24T05:10:17;98085.03;;;7.24;100.00
59531;BME280;45349;48.692;8.186;2023-02-24T05:12:45;98081.47;;;7.25;100.00
59531;BME280;45349;48.692;8.186;2023-02-24T05:15:11;98079.16;;;7.22;100.00
59531;BME280;45349;48.692;8.186;2023-02-24T05:17:38;98079.84;;;7.24;100.00
59531;BME280;45349;48.692;8.186;2023-02-24T05:20:07;98074.63;;;7.24;100.00
59531;BME280;45349;48.692;8.186;2023-02-24T05:22:52;98070.97;;;7.27;100.00
59531;BME280;45349;48.692;8.186;2023-02-24T05:25:19;98064.34;;;7.32;100.00
59531;BME280;45349;48.692;8.186;2023-02-24T05:27:47;98054.94;;;7.31;100.00
59531;BME280;45349;48.692;8.186;2023-02-24T05:30:14;98046.34;;;7.31;100.00
59531;BME280;45349;48.692;8.186;2023-02-24T05:32:42;98045.38;;;7.32;100.00
59531;BME280;45349;48.692;8.186;2023-02-24T05:35:10;98041.00;;;7.32;100.00
59531;BME280;45349;48.692;8.186;2023-02-24T05:37:38;98033.38;;;7.31;100.00
59531;BME280;45349;48.692;8.186;2023-02-24T05:40:09;98031.44;;;7.33;100.00
59531;BME280;45349;48.692;8.186;2023-02-24T05:42:38;98026.91;;;7.35;100.00
59531;BME280;45349;48.692;8.186;2023-02-24T05:45:09;98017.63;;;7.32;100.00
59531;BME280;45349;48.692;8.186;2023-02-24T05:47:36;98020.91;;;7.34;100.00
59531;BME280;45349;48.692;8.186;2023-02-24T05:50:03;98014.31;;;7.40;100.00
59531;BME280;45349;48.692;8.186;2023-02-24T05:52:29;98014.84;;;7.44;100.00
59531;BME280;45349;48.692;8.186;2023-02-24T05:54:56;98023.06;;;7.39;100.00
59531;BME280;45349;48.692;8.186;2023-02-24T05:57:25;98013.78;;;7.36;100.00
59531;BME280;45349;48.692;8.186;2023-02-24T05:59:57;98014.44;;;7.38;100.00
59531;BME280;45349;48.692;8.186;2023-02-24T06:02:25;98016.97;;;7.48;100.00
59531;BME280;45349;48.692;8.186;2023-02-24T06:04:53;98018.69;;;7.39;100.00
59531;BME280;45349;48.692;8.186;2023-02-24T06:07:21;98013.66;;;7.38;100.00
59531;BME280;45349;48.692;8.186;2023-02-24T06:09:50;98017.88;;;7.39;100.00
59531;BME280;45349;48.692;8.186;2023-02-24T06:12:19;98018.84;;;7.38;100.00
59531;BME280;45349;48.692;8.186;2023-02-24T06:14:46;98018.84;;;7.38;100.00
59531;BME280;45349;48.692;8.186;2023-02-24T06:17:13;98018.59;;;7.31;100.00
59531;BME280;45349;48.692;8.186;2023-02-24T06:19:42;98017.63;;;7.32;100.00
59531;BME280;45349;48.692;8.186;2023-02-24T06:22:12;98013.56;;;7.30;100.00
59531;BME280;45349;48.692;8.186;2023-02-24T06:24:39;98017.13;;;7.29;100.00
59531;BME280;45349;48.692;8.186;2023-02-24T06:27:09;98017.25;;;7.27;100.00
59531;BME280;45349;48.692;8.186;2023-02-24T06:29:42;98025.22;;;7.16;100.00
59531;BME280;45349;48.692;8.186;2023-02-24T06:32:08;98019.13;;;7.07;100.00
59531;BME280;45349;48.692;8.186;2023-02-24T06:34:36;98016.53;;;7.07;100.00
59531;BME280;45349;48.692;8.186;2023-02-24T06:37:05;98017.34;;;7.07;100.00
59531;BME280;45349;48.692;8.186;2023-02-24T06:39:32;98012.69;;;7.11;100.00
59531;BME280;45349;48.692;8.186;2023-02-24T06:41:59;98021.72;;;7.07;100.00
59531;BME280;45349;48.692;8.186;2023-02-24T06:44:28;98021.44;;;7.10;100.00
59531;BME280;45349;48.692;8.186;2023-02-24T06:46:55;98022.25;;;7.11;100.00
59531;BME280;45349;48.692;8.186;2023-02-24T06:49:22;98025.00;;;7.09;100.00
59531;BME280;45349;48.692;8.186;2023-02-24T06:51:49;98023.19;;;7.09;100.00
59531;BME280;45349;48.692;8.186;2023-02-24T06:54:17;98020.59;;;7.09;100.00
59531;BME280;45349;48.692;8.186;2023-02-24T06:56:44;98023.63;;;7.05;100.00
59531;BME280;45349;48.692;8.186;2023-02-24T06:59:12;98020.75;;;7.08;100.00
59531;BME280;45349;48.692;8.186;2023-02-24T07:01:46;98022.53;;;7.07;100.00
59531;BME280;45349;48.692;8.186;2023-02-24T07:04:13;98021.72;;;7.07;100.00
59531;BME280;45349;48.692;8.186;2023-02-24T07:06:47;98018.16;;;7.08;100.00
59531;BME280;45349;48.692;8.186;2023-02-24T07:09:19;98015.66;;;7.16;100.00
59531;BME280;45349;48.692;8.186;2023-02-24T07:11:47;98019.75;;;7.19;100.00
59531;BME280;45349;48.692;8.186;2023-02-24T07:14:17;98021.63;;;7.27;100.00
59531;BME280;45349;48.692;8.186;2023-02-24T07:16:44;98014.81;;;7.26;100.00
59531;BME280;45349;48.692;8.186;2023-02-24T07:19:12;98020.81;;;7.26;100.00
59531;BME280;45349;48.692;8.186;2023-02-24T07:21:41;98018.22;;;7.26;100.00
59531;BME280;45349;48.692;8.186;2023-02-24T07:24:12;98021.06;;;7.33;100.00
59531;BME280;45349;48.692;8.186;2023-02-24T07:26:40;98023.06;;;7.39;100.00
59531;BME280;45349;48.692;8.186;2023-02-24T07:29:09;98027.31;;;7.40;100.00
59531;BME280;45349;48.692;8.186;2023-02-24T07:31:37;98019.19;;;7.43;100.00
59531;BME280;45349;48.692;8.186;2023-02-24T07:34:04;98020.81;;;7.44;100.00
59531;BME280;45349;48.692;8.186;2023-02-24T07:36:31;98020.25;;;7.50;100.00
59531;BME280;45349;48.692;8.186;2023-02-24T07:39:04;98023.50;;;7.52;100.00
59531;BME280;45349;48.692;8.186;2023-02-24T07:41:33;98020.69;;;7.46;100.00
59531;BME280;45349;48.692;8.186;2023-02-24T07:44:02;98022.88;;;7.22;100.00
59531;BME280;45349;48.692;8.186;2023-02-24T07:46:33;98025.91;;;7.18;100.00
59531;BME280;45349;48.692;8.186;2023-02-24T07:49:00;98017.03;;;7.11;100.00
59531;BME280;45349;48.692;8.186;2023-02-24T07:51:28;98009.53;;;7.07;100.00
59531;BME280;45349;48.692;8.186;2023-02-24T07:53:56;98006.16;;;7.07;100.00
59531;BME280;45349;48.692;8.186;2023-02-24T07:56:24;98012.53;;;7.13;100.00
59531;BME280;45349;48.692;8.186;2023-02-24T07:58:53;98006.75;;;7.19;100.00
59531;BME280;45349;48.692;8.186;2023-02-24T08:01:26;98004.72;;;7.22;100.00
59531;BME280;45349;48.692;8.186;2023-02-24T08:03:55;98000.03;;;7.26;100.00
59531;BME280;45349;48.692;8.186;2023-02-24T08:06:22;98004.25;;;7.27;100.00
59531;BME280;45349;48.692;8.186;2023-02-24T08:08:53;98001.91;;;7.34;100.00
59531;BME280;45349;48.692;8.186;2023-02-24T08:11:25;98004.34;;;7.35;100.00
59531;BME280;45349;48.692;8.186;2023-02-24T08:13:58;98001.03;;;7.43;100.00
59531;BME280;45349;48.692;8.186;2023-02-24T08:16:28;97993.22;;;7.43;100.00
59531;BME280;45349;48.692;8.186;2023-02-24T08:19:04;97997.41;;;7.54;100.00
59531;BME280;45349;48.692;8.186;2023-02-24T08:21:31;98000.91;;;7.63;100.00
59531;BME280;45349;48.692;8.186;2023-02-24T08:24:03;97994.16;;;7.70;100.00
59531;BME280;45349;48.692;8.186;2023-02-24T08:26:30;97994.22;;;7.78;100.00
59531;BME280;45349;48.692;8.186;2023-02-24T08:28:56;97991.91;;;7.75;100.00
59531;BME280;45349;48.692;8.186;2023-02-24T08:31:23;97988.00;;;7.89;100.00
59531;BME280;45349;48.692;8.186;2023-02-24T08:33:51;97980.72;;;7.93;100.00
59531;BME280;45349;48.692;8.186;2023-02-24T08:36:20;97978.38;;;8.08;100.00
59531;BME280;45349;48.692;8.186;2023-02-24T08:38:51;97979.78;;;8.20;100.00
59531;BME280;45349;48.692;8.186;2023-02-24T08:41:19;97978.91;;;8.56;100.00
59531;BME280;45349;48.692;8.186;2023-02-24T08:43:53;97967.25;;;8.68;100.00
59531;BME280;45349;48.692;8.186;2023-02-24T08:46:22;97963.13;;;8.92;100.00
59531;BME280;45349;48.692;8.186;2023-02-24T08:48:53;97971.28;;;8.97;100.00
59531;BME280;45349;48.692;8.186;2023-02-24T08:51:24;97967.09;;;9.05;100.00
59531;BME280;45349;48.692;8.186;2023-02-24T08:53:54;97968.94;;;9.29;100.00
59531;BME280;45349;48.692;8.186;2023-02-24T08:56:23;97968.53;;;9.50;100.00
59531;BME280;45349;48.692;8.186;2023-02-24T08:58:52;97964.94;;;9.51;100.00
59531;BME280;45349;48.692;8.186;2023-02-24T09:01:24;97959.09;;;9.66;100.00
59531;BME280;45349;48.692;8.186;2023-02-24T09:03:55;97956.16;;;9.60;100.00
59531;BME280;45349;48.692;8.186;2023-02-24T09:06:36;97960.88;;;9.65;100.00
59531;BME280;45349;48.692;8.186;2023-02-24T09:09:03;97954.53;;;9.68;100.00
59531;BME280;45349;48.692;8.186;2023-02-24T09:11:42;97960.53;;;9.52;100.00
59531;BME280;45349;48.692;8.186;2023-02-24T09:14:12;97963.13;;;9.43;100.00
59531;BME280;45349;48.692;8.186;2023-02-24T09:16:43;97959.06;;;9.57;100.00
59531;BME280;45349;48.692;8.186;2023-02-24T09:19:34;97952.91;;;9.50;100.00
59531;BME280;45349;48.692;8.186;2023-02-24T09:22:21;97954.84;;;9.48;100.00
59531;BME280;45349;48.692;8.186;2023-02-24T09:24:58;97959.41;;;9.79;100.00
59531;BME280;45349;48.692;8.186;2023-02-24T09:27:46;97950.94;;;9.77;100.00
59531;BME280;45349;48.692;8.186;2023-02-24T09:30:18;97956.16;;;9.77;100.00
59531;BME280;45349;48.692;8.186;2023-02-24T09:33:09;97956.47;;;9.57;100.00
59531;BME280;45349;48.692;8.186;2023-02-24T09:35:48;97959.38;;;9.38;100.00
59531;BME280;45349;48.692;8.186;2023-02-24T09:38:17;97953.81;;;9.24;100.00
59531;BME280;45349;48.692;8.186;2023-02-24T09:40:45;97952.81;;;9.17;100.00
59531;BME280;45349;48.692;8.186;2023-02-24T09:43:20;97951.31;;;9.06;100.00
59531;BME280;45349;48.692;8.186;2023-02-24T09:45:53;97943.50;;;8.98;100.00
59531;BME280;45349;48.692;8.186;2023-02-24T09:48:31;97942.97;;;8.94;100.00
59531;BME280;45349;48.692;8.186;2023-02-24T09:51:11;97935.13;;;8.86;100.00
59531;BME280;45349;48.692;8.186;2023-02-24T09:53:46;97934.75;;;8.73;100.00
59531;BME280;45349;48.692;8.186;2023-02-24T09:56:19;97933.75;;;8.65;100.00
59531;BME280;45349;48.692;8.186;2023-02-24T09:58:52;97939.25;;;8.62;100.00
59531;BME280;45349;48.692;8.186;2023-02-24T10:01:30;97934.88;;;8.63;100.00
59531;BME280;45349;48.692;8.186;2023-02-24T10:04:04;97932.41;;;8.61;100.00
59531;BME280;45349;48.692;8.186;2023-02-24T10:06:39;97930.31;;;8.56;100.00
59531;BME280;45349;48.692;8.186;2023-02-24T10:09:15;97924.94;;;8.58;100.00
59531;BME280;45349;48.692;8.186;2023-02-24T10:11:50;97921.31;;;8.51;100.00
59531;BME280;45349;48.692;8.186;2023-02-24T10:14:25;97920.34;;;8.52;100.00
59531;BME280;45349;48.692;8.186;2023-02-24T10:16:54;97916.97;;;8.60;100.00
59531;BME280;45349;48.692;8.186;2023-02-24T10:19:38;97918.50;;;8.44;100.00
59531;BME280;45349;48.692;8.186;2023-02-24T10:22:14;97917.69;;;8.44;100.00
59531;BME280;45349;48.692;8.186;2023-02-24T10:24:57;97918.97;;;8.39;100.00
59531;BME280;45349;48.692;8.186;2023-02-24T10:27:46;97914.78;;;8.47;100.00
59531;BME280;45349;48.692;8.186;2023-02-24T10:30:29;97908.66;;;8.56;100.00
59531;BME280;45349;48.692;8.186;2023-02-24T10:33:16;97908.06;;;8.70;100.00
59531;BME280;45349;48.692;8.186;2023-02-24T10:35:45;97904.22;;;8.83;100.00
59531;BME280;45349;48.692;8.186;2023-02-24T10:38:13;97904.56;;;8.88;100.00
59531;BME280;45349;48.692;8.186;2023-02-24T10:40:45;97908.66;;;8.91;100.00
59531;BME280;45349;48.692;8.186;2023-02-24T10:43:22;97903.47;;;8.99;100.00
59531;BME280;45349;48.692;8.186;2023-02-24T10:45:55;97891.59;;;9.05;100.00
59531;BME280;45349;48.692;8.186;2023-02-24T10:48:31;97892.91;;;9.09;100.00
59531;BME280;45349;48.692;8.186;2023-02-24T10:51:09;97890.50;;;9.24;100.00
59531;BME280;45349;48.692;8.186;2023-02-24T10:53:38;97889.69;;;9.32;100.00
59531;BME280;45349;48.692;8.186;2023-02-24T10:56:11;97887.91;;;9.49;100.00
59531;BME280;45349;48.692;8.186;2023-02-24T10:58:59;97877.66;;;9.64;100.00
59531;BME280;45349;48.692;8.186;2023-02-24T11:01:49;97868.38;;;9.69;100.00
59531;BME280;45349;48.692;8.186;2023-02-24T11:04:30;97863.63;;;9.81;99.96
59531;BME280;45349;48.692;8.186;2023-02-24T11:07:18;97862.00;;;9.97;99.07
59531;BME280;45349;48.692;8.186;2023-02-24T11:10:03;97861.50;;;10.01;97.91
59531;BME280;45349;48.692;8.186;2023-02-24T11:12:41;97867.22;;;9.80;97.35
59531;BME280;45349;48.692;8.186;2023-02-24T11:15:30;97856.13;;;9.86;98.61
59531;BME280;45349;48.692;8.186;2023-02-24T11:18:17;97841.16;;;9.88;98.90
59531;BME280;45349;48.692;8.186;2023-02-24T11:20:46;97841.75;;;10.07;98.24
59531;BME280;45349;48.692;8.186;2023-02-24T11:23:16;97827.41;;;10.11;96.90
59531;BME280;45349;48.692;8.186;2023-02-24T11:25:48;97819.84;;;10.33;95.70
59531;BME280;45349;48.692;8.186;2023-02-24T11:28:36;97808.06;;;10.54;94.02
59531;BME280;45349;48.692;8.186;2023-02-24T11:31:16;97810.66;;;10.85;92.38
59531;BME280;45349;48.692;8.186;2023-02-24T11:33:52;97804.03;;;10.98;89.14
59531;BME280;45349;48.692;8.186;2023-02-24T11:36:24;97807.75;;;11.03;88.43
59531;BME280;45349;48.692;8.186;2023-02-24T11:39:02;97805.66;;;11.22;87.35
59531;BME280;45349;48.692;8.186;2023-02-24T11:41:39;97796.09;;;11.52;87.37
59531;BME280;45349;48.692;8.186;2023-02-24T11:44:14;97799.19;;;11.33;83.88
59531;BME280;45349;48.692;8.186;2023-02-24T11:46:48;97793.03;;;11.49;82.67
59531;BME280;45349;48.692;8.186;2023-02-24T11:49:26;97780.53;;;11.36;79.51
59531;BME280;45349;48.692;8.186;2023-02-24T11:51:54;97784.97;;;11.35;79.32
59531;BME280;45349;48.692;8.186;2023-02-24T11:54:21;97776.63;;;11.17;81.18
59531;BME280;45349;48.692;8.186;2023-02-24T11:56:52;97775.34;;;11.13;80.55
59531;BME280;45349;48.692;8.186;2023-02-24T11:59:29;97767.69;;;10.88;84.21
59531;BME280;45349;48.692;8.186;2023-02-24T12:02:01;97760.91;;;10.78;85.71
59531;BME280;45349;48.692;8.186;2023-02-24T12:04:33;97763.22;;;10.73;85.26
59531;BME280;45349;48.692;8.186;2023-02-24T12:07:06;97769.91;;;10.53;86.21
59531;BME280;45349;48.692;8.186;2023-02-24T12:09:37;97754.09;;;10.69;87.43
59531;BME280;45349;48.692;8.186;2023-02-24T12:12:11;97758.19;;;10.72;85.16
59531;BME280;45349;48.692;8.186;2023-02-24T12:14:42;97752.72;;;10.58;84.18
59531;BME280;45349;48.692;8.186;2023-02-24T12:17:16;97743.31;;;10.49;85.83
59531;BME280;45349;48.692;8.186;2023-02-24T12:19:57;97736.97;;;10.52;84.83
59531;BME280;45349;48.692;8.186;2023-02-24T12:22:32;97745.47;;;10.92;82.97
59531;BME280;45349;48.692;8.186;2023-02-24T12:25:09;97746.53;;;10.83;85.10
59531;BME280;45349;48.692;8.186;2023-02-24T12:27:44;97736.91;;;10.60;85.43
59531;BME280;45349;48.692;8.186;2023-02-24T12:30:32;97735.03;;;10.92;83.15
59531;BME280;45349;48.692;8.186;2023-02-24T12:33:25;97726.69;;;10.97;84.61
59531;BME280;45349;48.692;8.186;2023-02-24T12:36:03;97728.78;;;11.16;83.35
59531;BME280;45349;48.692;8.186;2023-02-24T12:38:51;97722.19;;;11.05;82.97
59531;BME280;45349;48.692;8.186;2023-02-24T12:41:34;97714.00;;;10.93;83.77
59531;BME280;45349;48.692;8.186;2023-02-24T12:44:12;97717.09;;;11.12;88.57
59531;BME280;45349;48.692;8.186;2023-02-24T12:46:42;97709.28;;;11.27;85.91
59531;BME280;45349;48.692;8.186;2023-02-24T12:49:26;97705.22;;;11.25;83.83
59531;BME280;45349;48.692;8.186;2023-02-24T12:52:04;97696.94;;;11.21;81.89
59531;BME280;45349;48.692;8.186;2023-02-24T12:54:39;97693.53;;;10.97;84.49
59531;BME280;45349;48.692;8.186;2023-02-24T12:57:14;97697.75;;;11.36;83.28
59531;BME280;45349;48.692;8.186;2023-02-24T12:59:46;97692.09;;;11.48;79.56
59531;BME280;45349;48.692;8.186;2023-02-24T13:02:21;97687.22;;;11.45;82.46
59531;BME280;45349;48.692;8.186;2023-02-24T13:04:54;97689.16;;;11.13;79.97
59531;BME280;45349;48.692;8.186;2023-02-24T13:07:35;97685.00;;;11.03;80.84
59531;BME280;45349;48.692;8.186;2023-02-24T13:10:15;97681.25;;;10.83;82.82
59531;BME280;45349;48.692;8.186;2023-02-24T13:12:49;97683.34;;;10.64;83.39
59531;BME280;45349;48.692;8.186;2023-02-24T13:15:22;97683.34;;;10.41;84.46
59531;BME280;45349;48.692;8.186;2023-02-24T13:17:51;97683.13;;;9.87;88.11
59531;BME280;45349;48.692;8.186;2023-02-24T13:20:27;97677.09;;;9.87;88.22
59531;BME280;45349;48.692;8.186;2023-02-24T13:22:54;97676.47;;;9.85;89.70
59531;BME280;45349;48.692;8.186;2023-02-24T13:25:30;97673.97;;;9.92;90.80
59531;BME280;45349;48.692;8.186;2023-02-24T13:28:00;97668.16;;;9.81;91.67
59531;BME280;45349;48.692;8.186;2023-02-24T13:30:36;97667.22;;;9.74;91.14
59531;BME280;45349;48.692;8.186;2023-02-24T13:33:19;97654.53;;;9.63;92.13
59531;BME280;45349;48.692;8.186;2023-02-24T13:35:48;97650.72;;;9.42;93.57